sensor_id;sensor_type;location;lat;lon;timestamp;P1;durP1;ratioP1;P2;durP2;ratioP2
33840;SDS011;20142;28.494;-16.312;2023-04-16T00:01:50;36.13;;;4.63;;
33840;SDS011;20142;28.494;-16.312;2023-04-16T00:06:53;38.60;;;4.82;;
33840;SDS011;20142;28.494;-16.312;2023-04-16T00:11:55;37.67;;;5.70;;
33840;SDS011;20142;28.494;-16.312;2023-04-16T00:16:57;38.53;;;4.65;;
33840;SDS011;20142;28.494;-16.312;2023-04-16T00:21:58;38.92;;;5.43;;
33840;SDS011;20142;28.494;-16.312;2023-04-16T00:27:00;36.92;;;4.85;;
33840;SDS011;20142;28.494;-16.312;2023-04-16T00:32:02;30.85;;;4.82;;
33840;SDS011;20142;28.494;-16.312;2023-04-16T00:37:03;33.83;;;5.07;;
33840;SDS011;20142;28.494;-16.312;2023-04-16T00:42:05;34.80;;;4.70;;
33840;SDS011;20142;28.494;-16.312;2023-04-16T00:47:07;39.65;;;4.43;;
33840;SDS011;20142;28.494;-16.312;2023-04-16T00:52:09;37.72;;;6.10;;
33840;SDS011;20142;28.494;-16.312;2023-04-16T00:57:12;38.83;;;4.53;;
33840;SDS011;20142;28.494;-16.312;2023-04-16T01:02:14;38.80;;;4.30;;
33840;SDS011;20142;28.494;-16.312;2023-04-16T01:07:16;27.90;;;4.32;;
33840;SDS011;20142;28.494;-16.312;2023-04-16T01:12:18;26.65;;;4.35;;
33840;SDS011;20142;28.494;-16.312;2023-04-16T01:17:19;38.50;;;5.90;;
33840;SDS011;20142;28.494;-16.312;2023-04-16T01:22:21;30.88;;;4.57;;
33840;SDS011;20142;28.494;-16.312;2023-04-16T01:27:22;39.70;;;5.35;;
33840;SDS011;20142;28.494;-16.312;2023-04-16T01:32:24;31.20;;;4.50;;
33840;SDS011;20142;28.494;-16.312;2023-04-16T01:37:26;28.48;;;3.92;;
33840;SDS011;20142;28.494;-16.312;2023-04-16T01:42:27;32.65;;;4.75;;
33840;SDS011;20142;28.494;-16.312;2023-04-16T01:47:29;29.67;;;4.47;;
33840;SDS011;20142;28.494;-16.312;2023-04-16T01:52:31;31.92;;;5.00;;
33840;SDS011;20142;28.494;-16.312;2023-04-16T01:57:32;37.45;;;4.60;;
33840;SDS011;20142;28.494;-16.312;2023-04-16T02:02:34;34.00;;;5.20;;
33840;SDS011;20142;28.494;-16.312;2023-04-16T02:07:36;31.60;;;4.93;;
33840;SDS011;20142;28.494;-16.312;2023-04-16T02:12:38;28.40;;;4.55;;
33840;SDS011;20142;28.494;-16.312;2023-04-16T02:17:39;32.78;;;5.18;;
33840;SDS011;20142;28.494;-16.312;2023-04-16T02:22:41;31.60;;;4.35;;
33840;SDS011;20142;28.494;-16.312;2023-04-16T02:27:43;30.65;;;4.32;;
33840;SDS011;20142;28.494;-16.312;2023-04-16T02:32:44;35.28;;;4.93;;
33840;SDS011;20142;28.494;-16.312;2023-04-16T02:37:46;31.45;;;4.63;;
33840;SDS011;20142;28.494;-16.312;2023-04-16T02:42:48;36.03;;;5.07;;
33840;SDS011;20142;28.494;-16.312;2023-04-16T02:47:50;28.30;;;4.30;;
33840;SDS011;20142;28.494;-16.312;2023-04-16T02:52:51;29.45;;;4.18;;
33840;SDS011;20142;28.494;-16.312;2023-04-16T02:57:53;27.42;;;4.50;;
33840;SDS011;20142;28.494;-16.312;2023-04-16T03:02:55;35.00;;;5.07;;
33840;SDS011;20142;28.494;-16.312;2023-04-16T03:07:57;33.20;;;4.82;;
33840;SDS011;20142;28.494;-16.312;2023-04-16T03:12:58;28.58;;;5.07;;
33840;SDS011;20142;28.494;-16.312;2023-04-16T03:18:00;31.65;;;4.65;;
33840;SDS011;20142;28.494;-16.312;2023-04-16T03:23:02;31.25;;;4.57;;
33840;SDS011;20142;28.494;-16.312;2023-04-16T03:28:03;24.52;;;4.88;;
33840;SDS011;20142;28.494;-16.312;2023-04-16T03:33:05;30.63;;;5.20;;
33840;SDS011;20142;28.494;-16.312;2023-04-16T03:38:07;21.63;;;3.97;;
33840;SDS011;20142;28.494;-16.312;2023-04-16T03:43:08;34.80;;;5.03;;
33840;SDS011;20142;28.494;-16.312;2023-04-16T03:48:10;32.65;;;4.35;;
33840;SDS011;20142;28.494;-16.312;2023-04-16T03:53:12;32.65;;;4.57;;
33840;SDS011;20142;28.494;-16.312;2023-04-16T03:58:14;34.70;;;4.72;;
33840;SDS011;20142;28.494;-16.312;2023-04-16T04:03:15;35.30;;;4.50;;
33840;SDS011;20142;28.494;-16.312;2023-04-16T04:08:18;33.92;;;4.00;;
33840;SDS011;20142;28.494;-16.312;2023-04-16T04:13:20;34.42;;;4.47;;
33840;SDS011;20142;28.494;-16.312;2023-04-16T04:18:22;29.58;;;4.43;;
33840;SDS011;20142;28.494;-16.312;2023-04-16T04:23:23;28.50;;;5.07;;
33840;SDS011;20142;28.494;-16.312;2023-04-16T04:28:25;39.67;;;5.85;;
33840;SDS011;20142;28.494;-16.312;2023-04-16T04:33:27;34.58;;;4.70;;
33840;SDS011;20142;28.494;-16.312;2023-04-16T04:38:29;31.08;;;5.30;;
33840;SDS011;20142;28.494;-16.312;2023-04-16T04:43:31;35.22;;;5.38;;
33840;SDS011;20142;28.494;-16.312;2023-04-16T04:48:32;31.00;;;4.90;;
33840;SDS011;20142;28.494;-16.312;2023-04-16T04:53:34;26.73;;;4.75;;
33840;SDS011;20142;28.494;-16.312;2023-04-16T04:58:36;29.95;;;4.10;;
33840;SDS011;20142;28.494;-16.312;2023-04-16T05:03:37;41.75;;;5.03;;
33840;SDS011;20142;28.494;-16.312;2023-04-16T05:08:39;29.25;;;5.32;;
33840;SDS011;20142;28.494;-16.312;2023-04-16T05:13:40;25.27;;;4.50;;
33840;SDS011;20142;28.494;-16.312;2023-04-16T05:18:42;27.13;;;4.45;;
33840;SDS011;20142;28.494;-16.312;2023-04-16T05:23:44;26.23;;;4.68;;
33840;SDS011;20142;28.494;-16.312;2023-04-16T05:28:45;31.27;;;4.72;;
33840;SDS011;20142;28.494;-16.312;2023-04-16T05:33:47;23.85;;;3.92;;
33840;SDS011;20142;28.494;-16.312;2023-04-16T05:38:49;33.00;;;4.65;;
33840;SDS011;20142;28.494;-16.312;2023-04-16T05:43:50;25.50;;;4.28;;
33840;SDS011;20142;28.494;-16.312;2023-04-16T05:48:52;33.13;;;4.88;;
33840;SDS011;20142;28.494;-16.312;2023-04-16T05:53:54;29.92;;;4.93;;
33840;SDS011;20142;28.494;-16.312;2023-04-16T05:58:56;25.65;;;5.20;;
33840;SDS011;20142;28.494;-16.312;2023-04-16T06:03:57;36.65;;;5.25;;
33840;SDS011;20142;28.494;-16.312;2023-04-16T06:08:59;20.55;;;3.92;;
33840;SDS011;20142;28.494;-16.312;2023-04-16T06:14:01;31.40;;;5.22;;
33840;SDS011;20142;28.494;-16.312;2023-04-16T06:19:02;27.67;;;4.38;;
33840;SDS011;20142;28.494;-16.312;2023-04-16T06:24:04;20.55;;;3.70;;
33840;SDS011;20142;28.494;-16.312;2023-04-16T06:29:06;28.80;;;4.65;;
33840;SDS011;20142;28.494;-16.312;2023-04-16T06:34:07;33.53;;;5.43;;
33840;SDS011;20142;28.494;-16.312;2023-04-16T06:39:09;25.73;;;4.47;;
33840;SDS011;20142;28.494;-16.312;2023-04-16T06:44:11;33.97;;;5.32;;
33840;SDS011;20142;28.494;-16.312;2023-04-16T06:49:12;31.52;;;3.90;;
33840;SDS011;20142;28.494;-16.312;2023-04-16T06:54:14;29.92;;;5.13;;
33840;SDS011;20142;28.494;-16.312;2023-04-16T06:59:16;25.35;;;4.38;;
33840;SDS011;20142;28.494;-16.312;2023-04-16T07:04:18;29.60;;;4.03;;
33840;SDS011;20142;28.494;-16.312;2023-04-16T07:09:20;30.42;;;4.82;;
33840;SDS011;20142;28.494;-16.312;2023-04-16T07:14:21;24.60;;;4.22;;
33840;SDS011;20142;28.494;-16.312;2023-04-16T07:19:23;29.42;;;4.40;;
33840;SDS011;20142;28.494;-16.312;2023-04-16T07:24:26;25.27;;;4.13;;
33840;SDS011;20142;28.494;-16.312;2023-04-16T07:29:27;30.05;;;4.88;;
33840;SDS011;20142;28.494;-16.312;2023-04-16T07:34:29;29.70;;;4.57;;
33840;SDS011;20142;28.494;-16.312;2023-04-16T07:39:31;26.20;;;4.70;;
33840;SDS011;20142;28.494;-16.312;2023-04-16T07:44:32;30.15;;;4.97;;
33840;SDS011;20142;28.494;-16.312;2023-04-16T07:49:34;26.55;;;5.15;;
33840;SDS011;20142;28.494;-16.312;2023-04-16T07:54:35;20.77;;;4.05;;
33840;SDS011;20142;28.494;-16.312;2023-04-16T07:59:37;23.35;;;4.35;;
33840;SDS011;20142;28.494;-16.312;2023-04-16T08:04:42;28.63;;;4.13;;
33840;SDS011;20142;28.494;-16.312;2023-04-16T08:09:48;22.35;;;3.97;;
33840;SDS011;20142;28.494;-16.312;2023-04-16T08:14:52;25.33;;;4.85;;
33840;SDS011;20142;28.494;-16.312;2023-04-16T08:19:53;24.30;;;4.70;;
33840;SDS011;20142;28.494;-16.312;2023-04-16T08:24:55;25.65;;;5.15;;
33840;SDS011;20142;28.494;-16.312;2023-04-16T08:29:57;23.13;;;4.30;;
33840;SDS011;20142;28.494;-16.312;2023-04-16T08:34:58;28.33;;;4.85;;
33840;SDS011;20142;28.494;-16.312;2023-04-16T08:40:00;25.17;;;4.20;;
33840;SDS011;20142;28.494;-16.312;2023-04-16T08:45:05;25.05;;;4.28;;
33840;SDS011;20142;28.494;-16.312;2023-04-16T08:50:13;24.05;;;4.20;;
33840;SDS011;20142;28.494;-16.312;2023-04-16T08:55:17;23.17;;;4.15;;
33840;SDS011;20142;28.494;-16.312;2023-04-16T09:00:25;26.77;;;4.30;;
33840;SDS011;20142;28.494;-16.312;2023-04-16T09:05:28;20.70;;;4.10;;
33840;SDS011;20142;28.494;-16.312;2023-04-16T09:10:31;27.45;;;4.28;;
33840;SDS011;20142;28.494;-16.312;2023-04-16T09:15:35;23.92;;;3.80;;
33840;SDS011;20142;28.494;-16.312;2023-04-16T09:20:38;32.10;;;4.57;;
33840;SDS011;20142;28.494;-16.312;2023-04-16T09:25:39;23.35;;;3.97;;
33840;SDS011;20142;28.494;-16.312;2023-04-16T09:30:41;25.65;;;4.57;;
33840;SDS011;20142;28.494;-16.312;2023-04-16T09:35:43;29.92;;;4.32;;
33840;SDS011;20142;28.494;-16.312;2023-04-16T09:40:47;22.92;;;4.30;;
33840;SDS011;20142;28.494;-16.312;2023-04-16T09:46:08;25.50;;;4.07;;
33840;SDS011;20142;28.494;-16.312;2023-04-16T09:51:14;24.30;;;4.47;;
33840;SDS011;20142;28.494;-16.312;2023-04-16T09:56:16;28.67;;;3.97;;
33840;SDS011;20142;28.494;-16.312;2023-04-16T10:01:18;22.58;;;3.55;;
33840;SDS011;20142;28.494;-16.312;2023-04-16T10:06:21;25.80;;;5.13;;
33840;SDS011;20142;28.494;-16.312;2023-04-16T10:11:26;21.70;;;4.90;;
33840;SDS011;20142;28.494;-16.312;2023-04-16T10:16:29;25.15;;;4.22;;
33840;SDS011;20142;28.494;-16.312;2023-04-16T10:21:30;24.52;;;4.03;;
33840;SDS011;20142;28.494;-16.312;2023-04-16T10:26:33;23.02;;;4.07;;
33840;SDS011;20142;28.494;-16.312;2023-04-16T10:31:36;22.05;;;4.30;;
33840;SDS011;20142;28.494;-16.312;2023-04-16T10:36:39;25.58;;;4.65;;
33840;SDS011;20142;28.494;-16.312;2023-04-16T10:41:41;30.27;;;4.85;;
33840;SDS011;20142;28.494;-16.312;2023-04-16T10:46:45;24.02;;;4.32;;
33840;SDS011;20142;28.494;-16.312;2023-04-16T10:51:58;33.15;;;4.78;;
33840;SDS011;20142;28.494;-16.312;2023-04-16T10:57:07;24.55;;;4.50;;
33840;SDS011;20142;28.494;-16.312;2023-04-16T11:02:16;28.83;;;4.10;;
33840;SDS011;20142;28.494;-16.312;2023-04-16T11:07:19;21.40;;;4.63;;
33840;SDS011;20142;28.494;-16.312;2023-04-16T11:12:36;28.80;;;3.97;;
33840;SDS011;20142;28.494;-16.312;2023-04-16T11:17:46;23.42;;;4.00;;
33840;SDS011;20142;28.494;-16.312;2023-04-16T11:22:51;22.10;;;4.28;;
33840;SDS011;20142;28.494;-16.312;2023-04-16T11:27:57;15.50;;;3.80;;
33840;SDS011;20142;28.494;-16.312;2023-04-16T11:33:02;16.13;;;3.72;;
33840;SDS011;20142;28.494;-16.312;2023-04-16T11:38:08;26.88;;;4.45;;
33840;SDS011;20142;28.494;-16.312;2023-04-16T11:43:13;20.63;;;3.83;;
33840;SDS011;20142;28.494;-16.312;2023-04-16T11:48:17;16.05;;;3.80;;
33840;SDS011;20142;28.494;-16.312;2023-04-16T11:53:18;20.00;;;3.70;;
33840;SDS011;20142;28.494;-16.312;2023-04-16T11:58:22;22.67;;;4.22;;
33840;SDS011;20142;28.494;-16.312;2023-04-16T12:03:36;19.23;;;4.00;;
33840;SDS011;20142;28.494;-16.312;2023-04-16T12:08:45;18.40;;;2.72;;
33840;SDS011;20142;28.494;-16.312;2023-04-16T12:14:06;20.67;;;4.32;;
33840;SDS011;20142;28.494;-16.312;2023-04-16T12:19:11;23.80;;;4.60;;
33840;SDS011;20142;28.494;-16.312;2023-04-16T12:24:15;24.02;;;3.95;;
33840;SDS011;20142;28.494;-16.312;2023-04-16T12:29:24;23.80;;;4.00;;
33840;SDS011;20142;28.494;-16.312;2023-04-16T12:34:27;19.38;;;4.13;;
33840;SDS011;20142;28.494;-16.312;2023-04-16T12:39:29;26.48;;;3.95;;
33840;SDS011;20142;28.494;-16.312;2023-04-16T12:44:30;26.05;;;4.40;;
33840;SDS011;20142;28.494;-16.312;2023-04-16T12:49:32;27.20;;;4.72;;
33840;SDS011;20142;28.494;-16.312;2023-04-16T12:54:35;19.90;;;4.25;;
33840;SDS011;20142;28.494;-16.312;2023-04-16T12:59:37;18.92;;;3.90;;
33840;SDS011;20142;28.494;-16.312;2023-04-16T13:04:39;20.25;;;3.80;;
33840;SDS011;20142;28.494;-16.312;2023-04-16T13:09:40;21.67;;;4.10;;
33840;SDS011;20142;28.494;-16.312;2023-04-16T13:14:43;15.52;;;3.80;;
33840;SDS011;20142;28.494;-16.312;2023-04-16T13:19:44;23.85;;;4.00;;
33840;SDS011;20142;28.494;-16.312;2023-04-16T13:24:46;20.02;;;3.90;;
33840;SDS011;20142;28.494;-16.312;2023-04-16T13:29:48;22.35;;;4.03;;
33840;SDS011;20142;28.494;-16.312;2023-04-16T13:34:50;26.33;;;4.57;;
33840;SDS011;20142;28.494;-16.312;2023-04-16T13:39:51;21.48;;;4.13;;
33840;SDS011;20142;28.494;-16.312;2023-04-16T13:44:53;12.02;;;3.30;;
33840;SDS011;20142;28.494;-16.312;2023-04-16T13:49:55;17.75;;;3.95;;
33840;SDS011;20142;28.494;-16.312;2023-04-16T13:54:56;17.70;;;3.58;;
33840;SDS011;20142;28.494;-16.312;2023-04-16T13:59:58;15.55;;;3.85;;
33840;SDS011;20142;28.494;-16.312;2023-04-16T14:05:00;15.35;;;4.10;;
33840;SDS011;20142;28.494;-16.312;2023-04-16T14:10:01;19.48;;;3.85;;
33840;SDS011;20142;28.494;-16.312;2023-04-16T14:15:04;19.55;;;3.60;;
33840;SDS011;20142;28.494;-16.312;2023-04-16T14:20:10;23.35;;;4.03;;
33840;SDS011;20142;28.494;-16.312;2023-04-16T14:25:12;18.98;;;3.92;;
33840;SDS011;20142;28.494;-16.312;2023-04-16T14:30:14;20.00;;;3.78;;
33840;SDS011;20142;28.494;-16.312;2023-04-16T14:35:16;18.65;;;4.07;;
33840;SDS011;20142;28.494;-16.312;2023-04-16T14:40:18;17.67;;;3.33;;
33840;SDS011;20142;28.494;-16.312;2023-04-16T14:45:20;19.80;;;4.50;;
33840;SDS011;20142;28.494;-16.312;2023-04-16T14:50:22;19.67;;;3.85;;
33840;SDS011;20142;28.494;-16.312;2023-04-16T14:55:24;19.98;;;3.55;;
33840;SDS011;20142;28.494;-16.312;2023-04-16T15:00:26;17.08;;;3.40;;
33840;SDS011;20142;28.494;-16.312;2023-04-16T15:05:28;14.75;;;3.20;;
33840;SDS011;20142;28.494;-16.312;2023-04-16T15:10:31;24.17;;;3.80;;
33840;SDS011;20142;28.494;-16.312;2023-04-16T15:15:33;21.73;;;4.05;;
33840;SDS011;20142;28.494;-16.312;2023-04-16T15:20:34;23.40;;;4.25;;
33840;SDS011;20142;28.494;-16.312;2023-04-16T15:25:36;19.38;;;3.58;;
33840;SDS011;20142;28.494;-16.312;2023-04-16T15:30:38;21.10;;;3.40;;
33840;SDS011;20142;28.494;-16.312;2023-04-16T15:35:41;24.10;;;3.90;;
33840;SDS011;20142;28.494;-16.312;2023-04-16T15:40:42;26.58;;;3.90;;
33840;SDS011;20142;28.494;-16.312;2023-04-16T15:45:44;20.25;;;3.38;;
33840;SDS011;20142;28.494;-16.312;2023-04-16T15:50:46;20.80;;;3.88;;
33840;SDS011;20142;28.494;-16.312;2023-04-16T15:55:48;26.83;;;4.35;;
33840;SDS011;20142;28.494;-16.312;2023-04-16T16:00:52;22.92;;;4.03;;
33840;SDS011;20142;28.494;-16.312;2023-04-16T16:05:53;22.35;;;3.45;;
33840;SDS011;20142;28.494;-16.312;2023-04-16T16:10:56;21.38;;;4.15;;
33840;SDS011;20142;28.494;-16.312;2023-04-16T16:15:57;24.38;;;3.47;;
33840;SDS011;20142;28.494;-16.312;2023-04-16T16:20:59;20.40;;;3.42;;
33840;SDS011;20142;28.494;-16.312;2023-04-16T16:26:01;23.95;;;4.15;;
33840;SDS011;20142;28.494;-16.312;2023-04-16T16:31:05;19.00;;;2.97;;
33840;SDS011;20142;28.494;-16.312;2023-04-16T16:36:10;20.48;;;3.15;;
33840;SDS011;20142;28.494;-16.312;2023-04-16T16:41:12;22.50;;;3.15;;
33840;SDS011;20142;28.494;-16.312;2023-04-16T16:46:14;22.45;;;3.50;;
33840;SDS011;20142;28.494;-16.312;2023-04-16T16:51:15;22.60;;;3.75;;
33840;SDS011;20142;28.494;-16.312;2023-04-16T16:56:18;27.80;;;4.03;;
33840;SDS011;20142;28.494;-16.312;2023-04-16T17:01:20;25.20;;;4.10;;
33840;SDS011;20142;28.494;-16.312;2023-04-16T17:06:22;20.73;;;3.55;;
33840;SDS011;20142;28.494;-16.312;2023-04-16T17:11:24;25.65;;;3.80;;
33840;SDS011;20142;28.494;-16.312;2023-04-16T17:16:26;24.40;;;3.30;;
33840;SDS011;20142;28.494;-16.312;2023-04-16T17:21:29;20.60;;;3.45;;
33840;SDS011;20142;28.494;-16.312;2023-04-16T17:26:32;27.92;;;3.65;;
33840;SDS011;20142;28.494;-16.312;2023-04-16T17:31:34;25.80;;;3.75;;
33840;SDS011;20142;28.494;-16.312;2023-04-16T17:36:36;24.17;;;3.88;;
33840;SDS011;20142;28.494;-16.312;2023-04-16T17:41:38;22.83;;;3.90;;
33840;SDS011;20142;28.494;-16.312;2023-04-16T17:46:40;28.23;;;3.50;;
33840;SDS011;20142;28.494;-16.312;2023-04-16T17:51:41;18.02;;;3.33;;
33840;SDS011;20142;28.494;-16.312;2023-04-16T17:56:44;25.48;;;4.00;;
33840;SDS011;20142;28.494;-16.312;2023-04-16T18:01:45;19.75;;;3.78;;
33840;SDS011;20142;28.494;-16.312;2023-04-16T18:06:49;25.17;;;3.40;;
33840;SDS011;20142;28.494;-16.312;2023-04-16T18:11:50;25.65;;;4.00;;
33840;SDS011;20142;28.494;-16.312;2023-04-16T18:16:52;21.90;;;3.30;;
33840;SDS011;20142;28.494;-16.312;2023-04-16T18:21:54;20.58;;;2.88;;
33840;SDS011;20142;28.494;-16.312;2023-04-16T18:26:56;19.25;;;3.92;;
33840;SDS011;20142;28.494;-16.312;2023-04-16T18:31:58;28.58;;;3.55;;
33840;SDS011;20142;28.494;-16.312;2023-04-16T18:36:59;18.55;;;3.17;;
33840;SDS011;20142;28.494;-16.312;2023-04-16T18:42:01;18.27;;;3.10;;
33840;SDS011;20142;28.494;-16.312;2023-04-16T18:47:03;19.52;;;3.63;;
33840;SDS011;20142;28.494;-16.312;2023-04-16T18:52:05;19.05;;;3.97;;
33840;SDS011;20142;28.494;-16.312;2023-04-16T18:57:06;21.90;;;3.88;;
33840;SDS011;20142;28.494;-16.312;2023-04-16T19:02:08;20.45;;;3.17;;
33840;SDS011;20142;28.494;-16.312;2023-04-16T19:07:10;20.42;;;3.00;;
33840;SDS011;20142;28.494;-16.312;2023-04-16T19:12:11;27.20;;;3.58;;
33840;SDS011;20142;28.494;-16.312;2023-04-16T19:17:13;21.85;;;3.35;;
33840;SDS011;20142;28.494;-16.312;2023-04-16T19:22:15;20.13;;;3.50;;
33840;SDS011;20142;28.494;-16.312;2023-04-16T19:27:16;27.00;;;4.18;;
33840;SDS011;20142;28.494;-16.312;2023-04-16T19:32:18;28.13;;;5.05;;
33840;SDS011;20142;28.494;-16.312;2023-04-16T19:37:20;22.52;;;3.78;;
33840;SDS011;20142;28.494;-16.312;2023-04-16T19:42:21;22.30;;;4.10;;
33840;SDS011;20142;28.494;-16.312;2023-04-16T19:47:23;22.20;;;2.90;;
33840;SDS011;20142;28.494;-16.312;2023-04-16T19:52:25;17.67;;;3.25;;
33840;SDS011;20142;28.494;-16.312;2023-04-16T19:57:26;28.20;;;4.18;;
33840;SDS011;20142;28.494;-16.312;2023-04-16T20:02:28;23.80;;;4.22;;
33840;SDS011;20142;28.494;-16.312;2023-04-16T20:07:30;25.83;;;4.15;;
33840;SDS011;20142;28.494;-16.312;2023-04-16T20:12:31;25.50;;;3.60;;
33840;SDS011;20142;28.494;-16.312;2023-04-16T20:17:33;28.65;;;4.03;;
33840;SDS011;20142;28.494;-16.312;2023-04-16T20:22:35;31.70;;;4.28;;
33840;SDS011;20142;28.494;-16.312;2023-04-16T20:27:37;25.92;;;4.40;;
33840;SDS011;20142;28.494;-16.312;2023-04-16T20:32:39;22.20;;;3.65;;
33840;SDS011;20142;28.494;-16.312;2023-04-16T20:37:41;23.30;;;3.42;;
33840;SDS011;20142;28.494;-16.312;2023-04-16T20:42:43;30.65;;;4.10;;
33840;SDS011;20142;28.494;-16.312;2023-04-16T20:47:47;16.98;;;3.33;;
33840;SDS011;20142;28.494;-16.312;2023-04-16T20:52:49;19.33;;;3.28;;
33840;SDS011;20142;28.494;-16.312;2023-04-16T20:57:50;22.50;;;3.50;;
33840;SDS011;20142;28.494;-16.312;2023-04-16T21:02:52;20.45;;;3.25;;
33840;SDS011;20142;28.494;-16.312;2023-04-16T21:07:54;27.73;;;3.80;;
33840;SDS011;20142;28.494;-16.312;2023-04-16T21:12:55;28.77;;;3.72;;
33840;SDS011;20142;28.494;-16.312;2023-04-16T21:17:57;21.90;;;3.60;;
33840;SDS011;20142;28.494;-16.312;2023-04-16T21:22:59;27.58;;;4.35;;
33840;SDS011;20142;28.494;-16.312;2023-04-16T21:28:02;26.83;;;4.15;;
33840;SDS011;20142;28.494;-16.312;2023-04-16T21:33:03;20.42;;;3.38;;
33840;SDS011;20142;28.494;-16.312;2023-04-16T21:38:05;21.50;;;3.22;;
33840;SDS011;20142;28.494;-16.312;2023-04-16T21:43:07;15.77;;;3.05;;
33840;SDS011;20142;28.494;-16.312;2023-04-16T21:48:09;22.27;;;3.58;;
33840;SDS011;20142;28.494;-16.312;2023-04-16T21:53:10;18.60;;;2.53;;
33840;SDS011;20142;28.494;-16.312;2023-04-16T21:58:12;26.23;;;4.65;;
33840;SDS011;20142;28.494;-16.312;2023-04-16T22:03:14;15.90;;;2.85;;
33840;SDS011;20142;28.494;-16.312;2023-04-16T22:08:16;16.23;;;2.25;;
33840;SDS011;20142;28.494;-16.312;2023-04-16T22:13:21;19.30;;;2.75;;
33840;SDS011;20142;28.494;-16.312;2023-04-16T22:18:24;21.15;;;2.88;;
33840;SDS011;20142;28.494;-16.312;2023-04-16T22:23:25;17.02;;;2.95;;
33840;SDS011;20142;28.494;-16.312;2023-04-16T22:28:27;23.67;;;3.15;;
33840;SDS011;20142;28.494;-16.312;2023-04-16T22:33:29;19.60;;;3.17;;
33840;SDS011;20142;28.494;-16.312;2023-04-16T22:38:31;16.45;;;2.60;;
33840;SDS011;20142;28.494;-16.312;2023-04-16T22:43:32;22.35;;;3.72;;
33840;SDS011;20142;28.494;-16.312;2023-04-16T22:48:36;21.80;;;3.13;;
33840;SDS011;20142;28.494;-16.312;2023-04-16T22:53:38;15.52;;;3.17;;
33840;SDS011;20142;28.494;-16.312;2023-04-16T22:58:40;23.00;;;3.03;;
33840;SDS011;20142;28.494;-16.312;2023-04-16T23:03:41;19.45;;;2.53;;
33840;SDS011;20142;28.494;-16.312;2023-04-16T23:08:43;17.60;;;2.92;;
33840;SDS011;20142;28.494;-16.312;2023-04-16T23:13:45;21.08;;;2.60;;
33840;SDS011;20142;28.494;-16.312;2023-04-16T23:18:46;20.67;;;2.95;;
33840;SDS011;20142;28.494;-16.312;2023-04-16T23:23:48;25.27;;;3.40;;
33840;SDS011;20142;28.494;-16.312;2023-04-16T23:28:50;21.58;;;3.35;;
33840;SDS011;20142;28.494;-16.312;2023-04-16T23:33:51;15.30;;;3.10;;
33840;SDS011;20142;28.494;-16.312;2023-04-16T23:38:53;21.58;;;3.10;;
33840;SDS011;20142;28.494;-16.312;2023-04-16T23:43:55;31.40;;;4.38;;
33840;SDS011;20142;28.494;-16.312;2023-04-16T23:48:57;30.83;;;3.72;;
33840;SDS011;20142;28.494;-16.312;2023-04-16T23:53:59;20.88;;;3.67;;
33840;SDS011;20142;28.494;-16.312;2023-04-16T23:59:00;26.70;;;3.13;;
